createdAt,value
2019-02-20T00:00:10.604Z,0.30
2019-02-20T00:02:39.195Z,0.30
2019-02-20T00:05:07.728Z,0.30
2019-02-20T00:07:36.246Z,0.20
2019-02-20T00:10:05.142Z,0.20
2019-02-20T00:12:33.667Z,0.10
2019-02-20T00:15:02.122Z,0.10
2019-02-20T00:17:30.598Z,0.10
2019-02-20T00:19:59.104Z,0.00
2019-02-20T00:22:27.550Z,0.10
2019-02-20T00:24:56.032Z,0.10
2019-02-20T00:27:24.482Z,0.10
2019-02-20T00:29:52.930Z,0.10
2019-02-20T00:32:21.411Z,0.10
2019-02-20T00:34:49.857Z,0.10
2019-02-20T00:37:18.302Z,0.00
2019-02-20T00:39:47.048Z,0.00
2019-02-20T00:42:15.508Z,0.00
2019-02-20T00:44:54.637Z,0.00
2019-02-20T00:47:40.869Z,0.10
2019-02-20T00:50:09.615Z,0.20
2019-02-20T00:52:54.778Z,0.60
2019-02-20T00:55:23.350Z,0.60
2019-02-20T00:57:51.812Z,0.60
2019-02-20T01:00:20.268Z,0.50
2019-02-20T01:02:48.766Z,0.60
2019-02-20T01:05:17.278Z,0.60
2019-02-20T01:07:45.722Z,0.60
2019-02-20T01:10:14.274Z,0.60
2019-02-20T01:12:42.722Z,0.70
2019-02-20T01:15:11.851Z,0.70
2019-02-20T01:17:40.325Z,0.70
2019-02-20T01:20:10.017Z,0.70
2019-02-20T01:22:38.463Z,0.80
2019-02-20T01:25:07.562Z,0.80
2019-02-20T01:27:36.018Z,0.80
2019-02-20T01:30:07.375Z,0.80
2019-02-20T01:32:35.866Z,0.70
2019-02-20T01:35:05.066Z,0.70
2019-02-20T01:37:33.592Z,0.70
2019-02-20T01:40:02.063Z,0.70
2019-02-20T01:42:30.514Z,0.50
2019-02-20T01:44:58.969Z,0.50
2019-02-20T01:47:27.698Z,0.50
2019-02-20T01:49:56.146Z,0.50
2019-02-20T01:52:24.604Z,0.60
2019-02-20T01:54:53.153Z,0.60
2019-02-20T01:57:21.678Z,0.60
2019-02-20T01:59:50.128Z,0.60
2019-02-20T02:02:19.586Z,0.50
2019-02-20T02:04:48.046Z,0.40
2019-02-20T02:07:16.643Z,0.40
2019-02-20T02:09:45.189Z,0.40
2019-02-20T02:12:13.634Z,0.30
2019-02-20T02:14:42.104Z,0.20
2019-02-20T02:17:10.762Z,0.20
2019-02-20T02:19:39.215Z,0.00
2019-02-20T02:22:07.760Z,-0.20
2019-02-20T02:24:36.230Z,-0.20
2019-02-20T02:27:04.927Z,-0.30
2019-02-20T02:29:33.375Z,-0.30
2019-02-20T02:32:01.869Z,-0.40
2019-02-20T02:36:58.516Z,-0.30
2019-02-20T02:39:27.204Z,-0.30
2019-02-20T02:41:55.723Z,-0.20
2019-02-20T02:44:24.196Z,-0.30
2019-02-20T02:46:52.780Z,-0.30
2019-02-20T02:49:21.297Z,-0.20
2019-02-20T02:51:49.767Z,-0.20
2019-02-20T02:54:18.322Z,-0.20
2019-02-20T02:56:46.789Z,-0.20
2019-02-20T02:59:15.328Z,-0.20
2019-02-20T03:01:43.823Z,0.00
2019-02-20T03:04:12.279Z,0.00
2019-02-20T03:06:40.737Z,0.10
2019-02-20T03:09:10.169Z,0.10
2019-02-20T03:11:38.624Z,0.00
2019-02-20T03:14:07.155Z,-0.10
2019-02-20T03:16:35.819Z,-0.10
2019-02-20T03:19:04.349Z,-0.10
2019-02-20T03:21:32.880Z,-0.10
2019-02-20T03:24:01.411Z,-0.10
2019-02-20T03:26:29.874Z,-0.10
2019-02-20T03:28:58.403Z,-0.20
2019-02-20T03:31:26.889Z,-0.30
2019-02-20T03:33:55.384Z,-0.40
2019-02-20T03:36:23.886Z,-0.50
2019-02-20T03:38:52.368Z,-0.50
2019-02-20T03:41:20.831Z,-0.40
2019-02-20T03:43:49.290Z,-0.30
2019-02-20T03:46:17.780Z,-0.30
2019-02-20T03:48:46.239Z,-0.30
2019-02-20T03:51:14.701Z,-0.30
2019-02-20T03:53:51.289Z,-0.40
2019-02-20T03:56:14.066Z,-0.40
2019-02-20T03:58:42.657Z,-0.40
2019-02-20T04:01:11.137Z,-0.50
2019-02-20T04:03:39.599Z,-0.50
2019-02-20T04:06:08.133Z,-0.50
2019-02-20T04:08:37.023Z,-0.50
2019-02-20T04:11:05.549Z,-0.40
2019-02-20T04:13:34.000Z,-0.40
2019-02-20T04:16:02.506Z,-0.50
2019-02-20T04:18:31.027Z,-0.40
2019-02-20T04:20:59.488Z,-0.40
2019-02-20T04:23:28.188Z,-0.40
2019-02-20T04:25:56.643Z,-0.40
2019-02-20T04:28:25.110Z,-0.40
2019-02-20T04:30:53.667Z,-0.50
2019-02-20T04:33:22.133Z,-0.60
2019-02-20T04:35:50.666Z,-0.60
2019-02-20T04:38:19.156Z,-0.50
2019-02-20T04:40:47.609Z,-0.50
2019-02-20T04:43:16.068Z,-0.60
2019-02-20T04:45:44.559Z,-0.50
2019-02-20T04:48:13.015Z,-0.50
2019-02-20T04:50:41.477Z,-0.50
2019-02-20T04:53:10.115Z,-0.50
2019-02-20T04:55:38.639Z,-0.70
2019-02-20T04:58:21.442Z,-0.80
2019-02-20T05:00:50.099Z,-0.90
2019-02-20T05:03:18.552Z,-1.00
2019-02-20T05:05:47.437Z,-1.00
2019-02-20T05:08:15.967Z,-1.00
2019-02-20T05:10:44.435Z,-1.10
2019-02-20T05:13:13.244Z,-1.00
2019-02-20T05:15:41.774Z,-0.90
2019-02-20T05:18:10.248Z,-0.90
2019-02-20T05:20:38.888Z,-0.80
2019-02-20T05:23:07.449Z,-0.80
2019-02-20T05:25:36.058Z,-0.90
2019-02-20T05:28:04.967Z,-0.90
2019-02-20T05:30:33.493Z,-0.80
2019-02-20T05:33:02.040Z,-0.80
2019-02-20T05:35:30.597Z,-0.80
2019-02-20T05:37:59.051Z,-0.80
2019-02-20T05:40:27.540Z,-0.80
2019-02-20T05:42:56.288Z,-0.70
2019-02-20T05:45:24.822Z,-0.70
2019-02-20T05:47:53.359Z,-0.60
2019-02-20T05:50:21.844Z,-0.60
2019-02-20T05:52:50.380Z,-0.60
2019-02-20T05:55:18.836Z,-0.60
2019-02-20T05:57:47.474Z,-0.50
2019-02-20T06:00:16.006Z,-0.50
2019-02-20T06:02:44.539Z,-0.50
2019-02-20T06:05:13.263Z,-0.50
2019-02-20T06:07:41.784Z,-0.50
2019-02-20T06:10:10.418Z,-0.40
2019-02-20T06:12:39.150Z,-0.40
2019-02-20T06:15:09.765Z,-0.40
2019-02-20T06:17:38.296Z,-0.30
2019-02-20T06:20:09.557Z,-0.30
2019-02-20T06:22:38.071Z,0.00
2019-02-20T06:25:06.597Z,0.00
2019-02-20T06:27:35.256Z,0.00
2019-02-20T06:30:05.625Z,0.00
2019-02-20T06:32:37.218Z,0.10
2019-02-20T06:35:06.791Z,0.10
2019-02-20T06:37:35.254Z,0.00
2019-02-20T06:40:03.858Z,0.00
2019-02-20T06:42:32.487Z,0.10
2019-02-20T06:45:00.957Z,0.20
2019-02-20T06:47:29.472Z,0.20
2019-02-20T06:49:57.949Z,0.20
2019-02-20T06:52:26.471Z,0.30
2019-02-20T06:54:54.945Z,0.20
2019-02-20T06:57:23.493Z,0.20
2019-02-20T07:00:12.557Z,0.30
2019-02-20T07:02:41.113Z,0.30
2019-02-20T07:05:32.810Z,0.30
2019-02-20T07:08:09.927Z,0.20
2019-02-20T07:10:50.515Z,0.30
2019-02-20T07:13:20.917Z,0.40
2019-02-20T07:16:07.135Z,0.40
2019-02-20T07:18:41.635Z,0.40
2019-02-20T07:21:16.002Z,0.50
2019-02-20T07:23:56.494Z,0.60
2019-02-20T07:26:47.501Z,0.60
2019-02-20T07:29:31.158Z,0.60
2019-02-20T07:31:59.616Z,0.60
2019-02-20T07:34:28.071Z,0.60
2019-02-20T07:36:56.549Z,0.70
2019-02-20T07:39:25.152Z,0.60
2019-02-20T07:41:53.610Z,0.70
2019-02-20T07:44:22.759Z,0.80
2019-02-20T07:46:51.212Z,0.90
2019-02-20T07:49:19.661Z,1.00
2019-02-20T07:51:48.555Z,1.20
2019-02-20T07:54:17.090Z,1.40
2019-02-20T07:56:45.621Z,1.60
2019-02-20T07:59:14.339Z,1.50
2019-02-20T08:01:42.807Z,1.50
2019-02-20T08:04:11.277Z,1.50
2019-02-20T08:06:39.760Z,1.50
2019-02-20T08:09:08.361Z,1.60
2019-02-20T08:11:36.963Z,1.80
2019-02-20T08:14:05.715Z,1.80
2019-02-20T08:16:34.167Z,1.90
2019-02-20T08:19:02.628Z,2.10
2019-02-20T08:21:31.299Z,2.40
2019-02-20T08:23:59.832Z,2.60
2019-02-20T08:26:28.297Z,2.50
2019-02-20T08:28:56.884Z,2.80
2019-02-20T08:31:25.356Z,2.90
2019-02-20T08:33:53.809Z,2.90
2019-02-20T08:36:22.288Z,3.00
2019-02-20T08:38:50.752Z,3.00
2019-02-20T08:41:19.283Z,2.80
2019-02-20T08:43:47.950Z,3.00
2019-02-20T08:46:16.403Z,3.40
2019-02-20T08:48:44.867Z,3.70
2019-02-20T08:51:13.370Z,3.70
2019-02-20T08:53:41.875Z,4.00
2019-02-20T08:56:10.331Z,4.00
2019-02-20T08:58:39.227Z,4.20
2019-02-20T09:01:07.683Z,4.70
2019-02-20T09:03:36.198Z,5.00
2019-02-20T09:06:04.764Z,5.10
2019-02-20T09:08:33.302Z,5.30
2019-02-20T09:11:01.825Z,5.60
2019-02-20T09:13:30.399Z,5.80
2019-02-20T09:15:58.864Z,6.10
2019-02-20T09:18:27.318Z,6.10
2019-02-20T09:20:55.980Z,6.10
2019-02-20T09:23:24.431Z,6.00
2019-02-20T09:25:52.887Z,6.50
2019-02-20T09:28:21.567Z,7.00
2019-02-20T09:30:50.059Z,7.40
2019-02-20T09:33:18.583Z,7.30
2019-02-20T09:35:47.065Z,7.40
2019-02-20T09:38:15.593Z,7.80
2019-02-20T09:40:44.210Z,8.20
2019-02-20T09:43:12.843Z,8.40
2019-02-20T09:45:42.841Z,8.90
2019-02-20T09:48:20.509Z,9.50
2019-02-20T09:50:48.967Z,10.40
2019-02-20T09:53:17.432Z,10.80
2019-02-20T09:55:51.553Z,12.30
2019-02-20T09:58:16.155Z,12.80
2019-02-20T10:00:44.614Z,12.90
2019-02-20T10:03:13.622Z,13.70
2019-02-20T10:05:42.083Z,13.80
2019-02-20T10:08:10.543Z,14.90
2019-02-20T10:10:39.027Z,16.80
2019-02-20T10:13:09.264Z,17.80
2019-02-20T10:15:37.691Z,18.30
2019-02-20T10:18:07.611Z,18.30
2019-02-20T10:20:36.301Z,17.30
2019-02-20T10:23:04.819Z,16.70
2019-02-20T10:25:33.299Z,17.40
2019-02-20T10:28:01.762Z,18.50
2019-02-20T10:30:30.225Z,19.10
2019-02-20T10:32:58.791Z,18.60
2019-02-20T10:35:27.255Z,18.30
2019-02-20T10:37:55.779Z,17.40
2019-02-20T10:40:24.399Z,16.50
2019-02-20T10:42:52.926Z,16.40
2019-02-20T10:45:21.472Z,15.00
2019-02-20T10:47:50.015Z,14.80
2019-02-20T10:50:18.474Z,15.10
2019-02-20T10:52:47.004Z,16.00
2019-02-20T10:55:15.575Z,14.70
2019-02-20T10:57:44.032Z,14.40
2019-02-20T11:00:23.455Z,15.00
2019-02-20T11:02:46.390Z,14.70
2019-02-20T11:05:14.838Z,14.50
2019-02-20T11:07:43.299Z,15.00
2019-02-20T11:10:11.944Z,15.50
2019-02-20T11:12:40.399Z,15.50
2019-02-20T11:15:09.190Z,15.50
2019-02-20T11:17:37.755Z,15.40
2019-02-20T11:20:11.198Z,15.70
2019-02-20T11:22:39.724Z,16.90
2019-02-20T11:25:10.736Z,17.20
2019-02-20T11:27:39.631Z,18.10
2019-02-20T11:30:20.146Z,18.90
2019-02-20T11:32:48.615Z,19.20
2019-02-20T11:35:17.211Z,18.70
2019-02-20T11:37:46.074Z,19.30
2019-02-20T11:40:15.540Z,19.60
2019-02-20T11:42:44.050Z,19.80
2019-02-20T11:45:18.839Z,19.70
2019-02-20T11:47:47.296Z,20.00
2019-02-20T11:50:15.827Z,20.40
2019-02-20T11:52:44.319Z,20.80
2019-02-20T11:55:14.384Z,20.30
2019-02-20T11:57:42.907Z,20.10
2019-02-20T12:00:16.176Z,18.50
2019-02-20T12:02:44.713Z,17.70
2019-02-20T12:05:13.313Z,17.70
2019-02-20T12:07:42.048Z,18.20
2019-02-20T12:10:12.849Z,18.40
2019-02-20T12:12:41.510Z,18.20
2019-02-20T12:15:10.127Z,18.20
2019-02-20T12:17:38.668Z,18.50
2019-02-20T12:20:08.635Z,19.00
2019-02-20T12:22:37.292Z,19.70
2019-02-20T12:25:08.159Z,19.30
2019-02-20T12:27:36.682Z,19.90
2019-02-20T12:30:10.775Z,19.70
2019-02-20T12:32:39.550Z,20.10
2019-02-20T12:35:09.025Z,18.70
2019-02-20T12:37:37.699Z,19.50
2019-02-20T12:40:08.295Z,19.20
2019-02-20T12:42:36.837Z,19.10
2019-02-20T12:45:07.314Z,19.10
2019-02-20T12:47:35.832Z,19.40
2019-02-20T12:50:06.700Z,19.20
2019-02-20T12:52:35.255Z,18.80
2019-02-20T12:55:03.979Z,19.10
2019-02-20T12:57:32.430Z,19.40
2019-02-20T13:00:00.916Z,19.60
2019-02-20T13:02:29.367Z,19.80
2019-02-20T13:04:57.967Z,19.20
2019-02-20T13:07:26.460Z,18.90
2019-02-20T13:09:54.945Z,18.60
2019-02-20T13:12:23.419Z,18.00
2019-02-20T13:14:51.977Z,18.70
2019-02-20T13:17:20.429Z,18.90
2019-02-20T13:19:48.978Z,19.90
2019-02-20T13:22:17.640Z,20.60
2019-02-20T13:24:46.243Z,20.50
2019-02-20T13:27:22.492Z,19.60
2019-02-20T13:29:45.083Z,19.30
2019-02-20T13:32:13.684Z,18.20
2019-02-20T13:34:42.147Z,17.10
2019-02-20T13:37:10.630Z,16.10
2019-02-20T13:39:39.153Z,16.30
2019-02-20T13:42:07.675Z,16.20
2019-02-20T13:44:36.550Z,15.80
2019-02-20T13:47:05.147Z,15.00
2019-02-20T13:49:33.759Z,14.90
2019-02-20T13:52:02.385Z,14.50
2019-02-20T13:54:30.923Z,14.50
2019-02-20T13:57:01.955Z,14.50
2019-02-20T13:59:29.658Z,14.60
2019-02-20T14:01:58.494Z,14.60
2019-02-20T14:04:26.949Z,14.60
2019-02-20T14:06:55.700Z,14.50
2019-02-20T14:09:24.224Z,14.60
2019-02-20T14:11:52.815Z,14.90
2019-02-20T14:14:21.405Z,15.60
2019-02-20T14:16:49.931Z,16.40
2019-02-20T14:19:18.452Z,16.90
2019-02-20T14:21:47.004Z,17.90
2019-02-20T14:24:15.557Z,18.30
2019-02-20T14:26:44.083Z,17.90
2019-02-20T14:29:12.640Z,18.20
2019-02-20T14:31:42.772Z,16.80
2019-02-20T14:34:11.352Z,16.80
2019-02-20T14:36:39.907Z,17.10
2019-02-20T14:39:08.516Z,16.70
2019-02-20T14:41:37.049Z,16.50
2019-02-20T14:44:05.667Z,15.70
2019-02-20T14:46:34.191Z,15.40
2019-02-20T14:49:02.723Z,15.00
2019-02-20T14:51:31.643Z,14.70
2019-02-20T14:54:00.184Z,14.90
2019-02-20T14:56:28.745Z,14.70
2019-02-20T14:58:57.467Z,14.60
2019-02-20T15:01:26.000Z,14.50
2019-02-20T15:03:54.552Z,14.30
2019-02-20T15:06:23.118Z,14.20
2019-02-20T15:08:51.648Z,14.20
2019-02-20T15:11:20.259Z,13.90
2019-02-20T15:13:48.935Z,14.20
2019-02-20T15:16:17.538Z,14.10
2019-02-20T15:18:46.113Z,13.90
2019-02-20T15:21:14.672Z,14.10
2019-02-20T15:23:43.499Z,13.80
2019-02-20T15:26:12.095Z,13.70
2019-02-20T15:28:40.819Z,13.90
2019-02-20T15:31:09.416Z,13.90
2019-02-20T15:33:38.114Z,13.70
2019-02-20T15:36:07.023Z,13.60
2019-02-20T15:38:35.563Z,13.60
2019-02-20T15:41:04.363Z,13.50
2019-02-20T15:43:33.119Z,13.50
2019-02-20T15:46:01.722Z,13.60
2019-02-20T15:48:30.244Z,13.70
2019-02-20T15:50:58.886Z,13.80
2019-02-20T15:53:27.419Z,13.80
2019-02-20T15:55:55.962Z,13.50
2019-02-20T15:58:24.506Z,13.30
2019-02-20T16:00:53.046Z,13.00
2019-02-20T16:03:21.667Z,12.70
2019-02-20T16:05:50.215Z,12.50
2019-02-20T16:08:18.848Z,12.30
2019-02-20T16:10:47.444Z,12.00
2019-02-20T16:13:16.511Z,11.90
2019-02-20T16:15:45.036Z,11.60
2019-02-20T16:18:13.567Z,11.50
2019-02-20T16:20:42.205Z,11.30
2019-02-20T16:23:10.728Z,11.10
2019-02-20T16:25:39.267Z,11.00
2019-02-20T16:28:08.172Z,10.90
2019-02-20T16:30:36.977Z,10.70
2019-02-20T16:33:05.514Z,10.50
2019-02-20T16:35:34.150Z,10.30
2019-02-20T16:38:02.671Z,10.10
2019-02-20T16:40:34.084Z,9.90
2019-02-20T16:43:03.843Z,9.70
2019-02-20T16:45:32.897Z,9.50
2019-02-20T16:48:01.426Z,9.30
2019-02-20T16:50:30.042Z,9.00
2019-02-20T16:52:58.567Z,8.80
2019-02-20T16:55:27.091Z,8.70
2019-02-20T16:57:56.886Z,8.50
2019-02-20T17:00:25.708Z,8.30
2019-02-20T17:02:54.602Z,8.10
2019-02-20T17:05:23.160Z,8.00
2019-02-20T17:07:51.700Z,7.90
2019-02-20T17:10:20.296Z,7.70
2019-02-20T17:12:48.955Z,7.60
2019-02-20T17:15:18.033Z,7.70
2019-02-20T17:17:47.302Z,7.50
2019-02-20T17:20:18.075Z,7.50
2019-02-20T17:22:46.941Z,7.30
2019-02-20T17:25:16.571Z,7.10
2019-02-20T17:27:45.303Z,7.00
2019-02-20T17:30:15.870Z,6.90
2019-02-20T17:32:44.941Z,6.60
2019-02-20T17:35:13.722Z,6.60
2019-02-20T17:37:42.315Z,6.50
2019-02-20T17:40:11.891Z,6.40
2019-02-20T17:42:40.618Z,6.20
2019-02-20T17:45:16.383Z,6.20
2019-02-20T17:47:45.251Z,6.10
2019-02-20T17:50:24.688Z,6.00
2019-02-20T17:52:53.436Z,5.90
2019-02-20T17:55:22.035Z,5.80
2019-02-20T17:57:50.559Z,5.70
2019-02-20T18:00:23.707Z,5.70
2019-02-20T18:02:52.170Z,5.60
2019-02-20T18:05:20.706Z,5.50
2019-02-20T18:07:51.871Z,5.40
2019-02-20T18:10:19.599Z,5.40
2019-02-20T18:12:48.061Z,5.30
2019-02-20T18:15:16.548Z,5.20
2019-02-20T18:17:45.081Z,5.20
2019-02-20T18:20:13.752Z,5.20
2019-02-20T18:22:43.775Z,5.30
2019-02-20T18:25:12.943Z,5.30
2019-02-20T18:27:41.460Z,5.20
2019-02-20T18:30:12.341Z,5.20
2019-02-20T18:32:40.821Z,5.00
2019-02-20T18:35:17.214Z,5.00
2019-02-20T18:37:45.668Z,5.00
2019-02-20T18:40:17.642Z,4.90
2019-02-20T18:42:46.592Z,4.80
2019-02-20T18:45:15.888Z,4.70
2019-02-20T18:47:44.542Z,4.70
2019-02-20T18:50:16.680Z,4.70
2019-02-20T18:52:45.373Z,4.60
2019-02-20T18:55:14.488Z,4.60
2019-02-20T18:57:43.491Z,4.60
2019-02-20T19:00:17.984Z,4.50
2019-02-20T19:02:46.930Z,4.50
2019-02-20T19:05:15.813Z,4.50
2019-02-20T19:07:44.348Z,4.40
2019-02-20T19:10:25.104Z,4.40
2019-02-20T19:13:11.715Z,4.30
2019-02-20T19:15:46.338Z,4.30
2019-02-20T19:18:23.756Z,4.30
2019-02-20T19:21:16.818Z,4.20
2019-02-20T19:24:07.857Z,4.20
2019-02-20T19:26:51.532Z,4.20
2019-02-20T19:29:26.043Z,4.20
2019-02-20T19:32:26.533Z,4.20
2019-02-20T19:35:10.171Z,4.30
2019-02-20T19:38:06.235Z,4.30
2019-02-20T19:40:49.912Z,4.40
2019-02-20T19:43:30.223Z,4.40
2019-02-20T19:46:13.553Z,4.30
2019-02-20T19:48:54.376Z,4.30
2019-02-20T19:51:44.377Z,4.20
2019-02-20T19:54:22.274Z,4.20
2019-02-20T19:56:59.940Z,4.10
2019-02-20T19:59:46.845Z,4.00
2019-02-20T20:02:41.008Z,3.90
2019-02-20T20:05:22.522Z,3.80
2019-02-20T20:07:54.392Z,3.80
2019-02-20T20:10:40.834Z,3.70
2019-02-20T20:13:33.756Z,3.70
2019-02-20T20:16:11.574Z,3.70
2019-02-20T20:18:46.083Z,3.60
2019-02-20T20:21:26.265Z,3.50
2019-02-20T20:24:32.516Z,3.50
2019-02-20T20:27:18.997Z,3.40
2019-02-20T20:30:14.801Z,3.40
2019-02-20T20:32:56.401Z,3.30
2019-02-20T20:35:43.292Z,3.20
2019-02-20T20:38:39.046Z,3.20
2019-02-20T20:41:33.174Z,3.20
2019-02-20T20:44:10.547Z,3.10
2019-02-20T20:46:59.280Z,3.20
2019-02-20T20:49:39.731Z,3.10
2019-02-20T20:52:30.679Z,3.10
2019-02-20T20:55:17.071Z,3.00
2019-02-20T20:58:08.275Z,2.90
2019-02-20T21:00:42.579Z,2.90
2019-02-20T21:03:14.189Z,2.90
2019-02-20T21:05:45.739Z,2.80
2019-02-20T21:08:22.998Z,2.90
2019-02-20T21:11:11.235Z,2.90
2019-02-20T21:14:07.231Z,2.80
2019-02-20T21:16:47.655Z,2.80
2019-02-20T21:19:34.475Z,2.90
2019-02-20T21:22:25.462Z,2.80
2019-02-20T21:25:14.419Z,2.70
2019-02-20T21:27:57.657Z,2.70
2019-02-20T21:30:50.406Z,2.70
2019-02-20T21:33:24.923Z,2.60
2019-02-20T21:36:02.260Z,2.60
2019-02-20T21:38:50.571Z,2.50
2019-02-20T21:41:28.182Z,2.40
2019-02-20T21:44:05.284Z,2.30
2019-02-20T21:47:09.744Z,2.50
2019-02-20T21:49:56.337Z,2.50
2019-02-20T21:52:57.943Z,2.40
2019-02-20T21:55:38.266Z,2.40
2019-02-20T21:58:37.513Z,2.50
2019-02-20T22:01:15.030Z,2.40
2019-02-20T22:04:19.857Z,2.30
2019-02-20T22:07:10.907Z,2.10
2019-02-20T22:09:42.856Z,2.30
2019-02-20T22:12:25.932Z,2.20
2019-02-20T22:15:06.479Z,2.20
2019-02-20T22:17:56.126Z,2.10
2019-02-20T22:21:03.473Z,2.10
2019-02-20T22:23:46.910Z,2.10
2019-02-20T22:26:35.212Z,2.30
2019-02-20T22:29:35.342Z,2.30
2019-02-20T22:32:15.807Z,2.20
2019-02-20T22:34:50.396Z,2.00
2019-02-20T22:37:24.699Z,2.00
2019-02-20T22:40:12.815Z,2.10
2019-02-20T22:43:02.654Z,2.00
2019-02-20T22:45:40.408Z,1.80
2019-02-20T22:48:28.673Z,1.80
2019-02-20T22:51:18.326Z,1.70
2019-02-20T22:54:07.993Z,1.70
2019-02-20T22:56:51.384Z,1.70
2019-02-20T22:59:34.916Z,1.70
2019-02-20T23:02:18.337Z,1.70
2019-02-20T23:04:58.770Z,1.60
2019-02-20T23:07:36.284Z,1.60
2019-02-20T23:10:24.438Z,1.90
2019-02-20T23:12:59.083Z,1.70
2019-02-20T23:15:27.552Z,1.70
2019-02-20T23:17:56.048Z,1.80
2019-02-20T23:20:24.613Z,1.80
2019-02-20T23:22:53.155Z,1.80
2019-02-20T23:25:22.132Z,1.90
2019-02-20T23:27:50.729Z,2.00
2019-02-20T23:30:39.036Z,1.90
2019-02-20T23:33:07.756Z,1.80
2019-02-20T23:35:36.212Z,1.60
2019-02-20T23:38:05.035Z,1.60
2019-02-20T23:40:33.484Z,1.50
2019-02-20T23:43:01.964Z,1.50
2019-02-20T23:45:30.511Z,1.40
2019-02-20T23:47:58.963Z,1.30
2019-02-20T23:50:27.487Z,1.30
2019-02-20T23:52:55.966Z,1.30
2019-02-20T23:55:24.418Z,1.20
2019-02-20T23:57:52.942Z,1.20
